Time;durP1;ratioP1;P1;durP2;ratioP2;P2;SDS_P1;SDS_P2;PMS_P1;PMS_P2;Temp;Humidity;BMP_temperature;BMP_pressure;BME280_temperature;BME280_humidity;BME280_pressure;Samples;Min_cycle;Max_cycle;Signal;HPM_P1;HPM_P2
2021/10/19 00:00:40;;;;;;;10.23;5.10;;;;;;;9.39;nan;102293.91;5061590;28;20028;-53
2021/10/19 00:03:08;;;;;;;9.07;5.88;;;;;;;9.45;nan;102276.22;5064342;28;20058;-54
2021/10/19 00:05:33;;;;;;;7.38;5.65;;;;;;;9.49;nan;102280.13;5059904;28;20033;-52
2021/10/19 00:07:59;;;;;;;9.38;5.05;;;;;;;9.47;nan;102290.22;5061416;28;20182;-53
2021/10/19 00:10:25;;;;;;;9.48;5.25;;;;;;;9.42;nan;102292.69;5062234;28;20086;-55
2021/10/19 00:12:50;;;;;;;9.50;5.93;;;;;;;9.48;nan;102301.75;5064916;28;20068;-54
2021/10/19 00:15:18;;;;;;;12.85;5.30;;;;;;;9.49;nan;102298.88;5066896;28;20063;-55
2021/10/19 00:17:45;;;;;;;8.73;5.75;;;;;;;9.49;nan;102304.22;5067445;28;20107;-55
2021/10/19 00:20:13;;;;;;;7.72;5.68;;;;;;;9.32;nan;102301.09;5062318;28;20306;-54
2021/10/19 00:22:39;;;;;;;9.05;4.60;;;;;;;9.42;nan;102300.72;5067852;28;20024;-55
2021/10/19 00:25:06;;;;;;;7.15;4.82;;;;;;;9.53;nan;102302.81;5062251;28;20413;-54
2021/10/19 00:27:35;;;;;;;12.90;5.05;;;;;;;9.56;nan;102294.38;5065845;28;20037;-53
2021/10/19 00:30:05;;;;;;;10.52;5.95;;;;;;;9.62;nan;102292.72;5065651;28;20519;-54
2021/10/19 00:32:30;;;;;;;7.88;5.03;;;;;;;9.62;nan;102285.50;5063079;28;20502;-54
2021/10/19 00:34:55;;;;;;;10.82;5.38;;;;;;;9.62;nan;102298.06;5063747;28;20115;-54
2021/10/19 00:37:21;;;;;;;10.48;5.22;;;;;;;9.60;nan;102292.09;5063115;28;21403;-55
2021/10/19 00:39:46;;;;;;;8.45;5.38;;;;;;;9.55;nan;102295.41;5062056;28;20051;-54
2021/10/19 00:42:12;;;;;;;10.07;5.90;;;;;;;9.50;nan;102302.38;5062623;28;20017;-55
2021/10/19 00:44:38;;;;;;;14.40;5.20;;;;;;;9.49;nan;102300.72;5066199;28;20421;-54
2021/10/19 00:47:04;;;;;;;12.63;5.68;;;;;;;9.39;nan;102301.94;5066046;28;20078;-54
2021/10/19 00:49:29;;;;;;;10.13;4.70;;;;;;;9.44;nan;102308.53;5062279;28;20040;-54
2021/10/19 00:51:55;;;;;;;9.73;6.10;;;;;;;9.36;nan;102305.03;5066525;28;20599;-54
2021/10/19 00:54:25;;;;;;;12.57;5.90;;;;;;;9.38;nan;102302.16;5061539;28;20032;-54
2021/10/19 00:56:55;;;;;;;10.60;5.15;;;;;;;9.36;nan;102286.31;5063575;28;20024;-55
2021/10/19 00:59:21;;;;;;;8.00;5.38;;;;;;;9.36;nan;102290.84;5065045;28;20085;-54
2021/10/19 01:01:48;;;;;;;9.68;6.60;;;;;;;9.26;nan;102291.19;5066848;28;20081;-53
2021/10/19 01:04:14;;;;;;;10.05;5.82;;;;;;;9.19;nan;102279.66;5065085;28;20032;-53
2021/10/19 01:06:40;;;;;;;11.70;5.43;;;;;;;9.14;nan;102281.28;5065619;28;20168;-54
2021/10/19 01:09:07;;;;;;;17.63;6.47;;;;;;;9.06;nan;102284.97;5066109;28;20032;-54
2021/10/19 01:11:33;;;;;;;11.43;6.68;;;;;;;9.03;nan;102286.19;5063984;28;20071;-53
2021/10/19 01:13:58;;;;;;;8.90;6.05;;;;;;;9.04;nan;102279.00;5066178;28;20052;-54
2021/10/19 01:16:24;;;;;;;9.85;6.57;;;;;;;8.96;nan;102279.97;5065618;28;20143;-56
2021/10/19 01:18:49;;;;;;;13.25;6.60;;;;;;;8.88;nan;102282.03;5065646;28;20021;-55
2021/10/19 01:21:15;;;;;;;12.05;7.13;;;;;;;8.75;nan;102283.59;5063920;28;20016;-54
2021/10/19 01:23:41;;;;;;;12.52;6.85;;;;;;;8.77;nan;102286.91;5065402;28;20418;-52
2021/10/19 01:26:09;;;;;;;12.10;6.68;;;;;;;8.78;nan;102277.84;5066847;28;20038;-54
2021/10/19 01:28:37;;;;;;;11.20;6.68;;;;;;;8.85;nan;102261.03;5063725;28;20093;-52
2021/10/19 01:31:05;;;;;;;11.85;7.28;;;;;;;8.81;nan;102257.13;5058353;28;20025;-53
2021/10/19 01:33:30;;;;;;;11.80;6.97;;;;;;;8.79;nan;102257.28;5065398;28;20291;-54
2021/10/19 01:35:56;;;;;;;9.82;6.82;;;;;;;8.79;nan;102258.13;5065624;28;20030;-54
2021/10/19 01:38:26;;;;;;;12.00;6.65;;;;;;;8.84;nan;102249.53;5059435;28;20653;-55
2021/10/19 01:40:53;;;;;;;11.48;7.35;;;;;;;8.83;nan;102247.06;5061278;28;20152;-52
2021/10/19 01:43:21;;;;;;;11.73;6.32;;;;;;;8.85;nan;102232.47;5063931;28;20047;-55
2021/10/19 01:45:54;;;;;;;10.27;6.68;;;;;;;8.84;nan;102225.47;5066786;28;20044;-54
2021/10/19 01:48:20;;;;;;;9.88;6.57;;;;;;;8.81;nan;102230.41;5064676;28;20037;-54
2021/10/19 01:50:46;;;;;;;19.33;7.80;;;;;;;8.81;nan;102241.09;5063036;28;20039;-54
2021/10/19 01:53:12;;;;;;;11.02;7.18;;;;;;;8.87;nan;102242.94;5062065;28;20339;-54
2021/10/19 01:55:40;;;;;;;10.57;7.28;;;;;;;8.76;nan;102247.00;5065012;28;20036;-52
2021/10/19 01:58:06;;;;;;;12.18;7.20;;;;;;;8.77;nan;102241.47;5064799;28;20175;-55
2021/10/19 02:00:32;;;;;;;13.02;7.78;;;;;;;8.70;nan;102243.28;5055626;28;20234;-53
2021/10/19 02:02:58;;;;;;;11.65;7.90;;;;;;;8.66;nan;102249.25;5046514;28;20063;-54
2021/10/19 02:05:23;;;;;;;12.00;7.82;;;;;;;8.62;nan;102251.50;5043786;28;20079;-53
2021/10/19 02:07:49;;;;;;;9.52;7.40;;;;;;;8.63;nan;102244.31;5046156;28;20020;-55
2021/10/19 02:10:14;;;;;;;11.70;7.32;;;;;;;8.65;nan;102248.41;5039538;28;20110;-55
2021/10/19 02:12:40;;;;;;;12.10;7.70;;;;;;;8.72;nan;102238.56;5044382;28;20119;-54
2021/10/19 02:15:08;;;;;;;10.88;7.03;;;;;;;8.55;nan;102250.63;5045142;28;20029;-53
2021/10/19 02:17:34;;;;;;;13.40;6.80;;;;;;;8.52;nan;102245.69;5044219;28;20027;-54
2021/10/19 02:20:00;;;;;;;11.63;7.38;;;;;;;8.53;nan;102231.28;5044423;28;20029;-54
2021/10/19 02:22:27;;;;;;;10.07;6.25;;;;;;;8.54;nan;102216.91;5043691;28;20051;-52
2021/10/19 02:24:54;;;;;;;10.10;6.82;;;;;;;8.55;nan;102196.38;5041476;28;20116;-54
2021/10/19 02:27:19;;;;;;;12.10;7.32;;;;;;;8.54;nan;102190.19;5043753;28;20152;-56
2021/10/19 02:29:45;;;;;;;10.70;7.18;;;;;;;8.45;nan;102191.41;5045554;28;20083;-53
2021/10/19 02:32:10;;;;;;;11.48;7.35;;;;;;;8.31;nan;102189.66;5044565;28;20125;-55
2021/10/19 02:34:36;;;;;;;11.98;8.00;;;;;;;8.25;nan;102190.44;5041844;28;20028;-55
2021/10/19 02:37:02;;;;;;;12.27;7.82;;;;;;;8.24;nan;102191.44;5044588;28;20252;-56
2021/10/19 02:39:28;;;;;;;14.75;7.65;;;;;;;8.19;nan;102176.03;5042207;28;20032;-55
2021/10/19 02:41:53;;;;;;;12.60;8.13;;;;;;;8.23;nan;102163.94;5044567;28;20498;-56
2021/10/19 02:44:19;;;;;;;20.48;8.73;;;;;;;8.11;nan;102174.34;5043437;28;20020;-54
2021/10/19 02:46:44;;;;;;;12.18;7.95;;;;;;;8.00;nan;102182.91;5044434;28;20031;-53
2021/10/19 02:49:10;;;;;;;11.80;8.43;;;;;;;7.97;nan;102191.31;5041115;28;20029;-55
2021/10/19 02:51:35;;;;;;;16.52;8.88;;;;;;;7.94;nan;102191.72;5045286;28;20033;-53
2021/10/19 02:54:01;;;;;;;10.93;8.43;;;;;;;7.97;nan;102196.66;5042161;28;20025;-54
2021/10/19 02:56:26;;;;;;;12.77;8.90;;;;;;;7.85;nan;102200.88;5041411;28;20067;-55
2021/10/19 02:58:52;;;;;;;13.00;7.97;;;;;;;7.85;nan;102211.53;5043897;28;20025;-56
2021/10/19 03:01:17;;;;;;;15.10;9.07;;;;;;;7.92;nan;102203.59;5040149;28;20385;-56
2021/10/19 03:03:43;;;;;;;15.50;9.02;;;;;;;7.95;nan;102211.22;5039493;28;20029;-53
2021/10/19 03:06:08;;;;;;;14.88;8.60;;;;;;;7.95;nan;102208.53;5041913;28;20482;-54
2021/10/19 03:08:34;;;;;;;15.38;9.50;;;;;;;7.93;nan;102202.56;5042488;28;20394;-54
2021/10/19 03:10:59;;;;;;;14.50;9.18;;;;;;;7.90;nan;102203.78;5040876;28;20029;-55
2021/10/19 03:13:27;;;;;;;14.48;8.70;;;;;;;7.96;nan;102195.00;5037883;28;20123;-53
2021/10/19 03:15:53;;;;;;;14.25;9.88;;;;;;;7.96;nan;102192.34;5041185;28;20024;-56
2021/10/19 03:18:18;;;;;;;14.82;9.50;;;;;;;7.92;nan;102191.06;5042371;28;20029;-55
2021/10/19 03:20:44;;;;;;;13.25;8.73;;;;;;;7.88;nan;102190.63;5040961;28;20025;-55
2021/10/19 03:23:09;;;;;;;13.65;9.57;;;;;;;7.83;nan;102192.22;5045283;28;20025;-55
2021/10/19 03:25:35;;;;;;;13.15;9.07;;;;;;;7.72;nan;102195.41;5041365;28;20033;-55
2021/10/19 03:28:00;;;;;;;15.82;8.98;;;;;;;7.71;nan;102199.09;5042559;28;20044;-54
2021/10/19 03:30:26;;;;;;;14.35;9.57;;;;;;;7.67;nan;102188.00;5040501;28;20040;-53
2021/10/19 03:32:51;;;;;;;14.50;9.65;;;;;;;7.61;nan;102194.13;5049125;28;20021;-55
2021/10/19 03:35:17;;;;;;;14.55;8.82;;;;;;;7.51;nan;102186.44;5042059;28;20021;-56
2021/10/19 03:37:42;;;;;;;14.65;8.48;;;;;;;7.46;nan;102164.88;5044750;28;20024;-55
2021/10/19 03:40:09;;;;;;;16.05;8.80;;;;;;;7.39;nan;102157.84;5041229;28;20029;-53
2021/10/19 03:42:38;;;;;;;15.43;9.77;;;;;;;7.39;nan;102157.84;5041085;28;20098;-55
2021/10/19 03:45:04;;;;;;;17.60;9.68;;;;;;;7.41;nan;102161.13;5044352;28;20039;-56
2021/10/19 03:47:30;;;;;;;19.75;10.55;;;;;;;7.33;nan;102159.41;5045861;28;20040;-55
2021/10/19 03:49:55;;;;;;;17.27;9.82;;;;;;;7.32;nan;102168.44;5044952;28;20144;-54
2021/10/19 03:52:21;;;;;;;18.65;9.80;;;;;;;7.33;nan;102174.59;5042562;28;20495;-56
2021/10/19 03:54:46;;;;;;;14.15;10.20;;;;;;;7.34;nan;102163.72;5045677;28;20086;-53
2021/10/19 03:57:12;;;;;;;16.08;10.40;;;;;;;7.43;nan;102151.91;5045516;28;20021;-56
2021/10/19 03:59:37;;;;;;;16.25;10.57;;;;;;;7.47;nan;102144.34;5043589;28;20178;-56
2021/10/19 04:02:03;;;;;;;18.67;10.13;;;;;;;7.51;nan;102133.09;5064885;28;20436;-56
2021/10/19 04:04:29;;;;;;;22.00;11.85;;;;;;;7.54;nan;102137.22;5067958;28;20039;-55
2021/10/19 04:06:54;;;;;;;21.02;11.50;;;;;;;7.61;nan;102146.09;5063831;28;20020;-56
2021/10/19 04:09:20;;;;;;;18.63;11.48;;;;;;;7.68;nan;102154.16;5065216;28;20174;-56
2021/10/19 04:11:46;;;;;;;18.00;10.63;;;;;;;7.68;nan;102157.63;5063043;28;20028;-55
2021/10/19 04:14:11;;;;;;;17.25;10.85;;;;;;;7.73;nan;102151.75;5066059;28;20028;-55
2021/10/19 04:16:37;;;;;;;19.23;10.70;;;;;;;7.78;nan;102166.13;5067181;28;20109;-54
2021/10/19 04:19:03;;;;;;;17.42;11.45;;;;;;;7.83;nan;102165.56;5068971;28;20438;-56
2021/10/19 04:21:29;;;;;;;18.02;10.57;;;;;;;7.88;nan;102173.78;5066565;28;20028;-54
2021/10/19 04:23:54;;;;;;;23.80;12.23;;;;;;;7.83;nan;102169.03;5068881;28;20061;-54
2021/10/19 04:26:20;;;;;;;18.02;9.52;;;;;;;7.80;nan;102180.09;5064165;28;20375;-56
2021/10/19 04:28:45;;;;;;;20.95;11.13;;;;;;;7.77;nan;102177.84;5067826;28;20482;-55
2021/10/19 04:31:12;;;;;;;19.25;11.15;;;;;;;7.75;nan;102181.72;5066348;28;20050;-56
2021/10/19 04:33:38;;;;;;;20.33;11.57;;;;;;;7.86;nan;102191.84;5063972;28;20489;-55
2021/10/19 04:36:04;;;;;;;18.30;11.65;;;;;;;7.82;nan;102193.25;5068702;28;20049;-55
2021/10/19 04:38:34;;;;;;;19.65;11.45;;;;;;;7.87;nan;102193.47;5069006;28;20414;-56
2021/10/19 04:41:00;;;;;;;20.45;10.93;;;;;;;7.92;nan;102191.06;5065435;28;20055;-55
2021/10/19 04:43:26;;;;;;;17.83;11.45;;;;;;;7.89;nan;102181.59;5067838;28;20025;-55
2021/10/19 04:45:53;;;;;;;18.30;11.23;;;;;;;7.96;nan;102184.31;5063971;28;20025;-53
2021/10/19 04:48:20;;;;;;;18.48;11.07;;;;;;;7.99;nan;102181.25;5065727;28;20386;-54
2021/10/19 04:50:45;;;;;;;17.95;11.40;;;;;;;8.01;nan;102173.06;5046042;28;20028;-53
2021/10/19 04:53:11;;;;;;;16.10;10.65;;;;;;;8.01;nan;102171.22;5063110;28;20616;-56
2021/10/19 04:55:36;;;;;;;16.08;11.13;;;;;;;8.02;nan;102169.34;5063994;28;21461;-56
2021/10/19 04:58:02;;;;;;;18.88;11.75;;;;;;;8.05;nan;102163.63;5046202;28;20066;-56
2021/10/19 05:00:28;;;;;;;17.77;11.63;;;;;;;8.06;nan;102158.09;5067127;28;20036;-53
2021/10/19 05:02:54;;;;;;;20.17;11.93;;;;;;;8.07;nan;102162.41;5064445;28;20020;-55
2021/10/19 05:05:19;;;;;;;19.05;12.18;;;;;;;8.08;nan;102156.06;5063283;28;20040;-57
2021/10/19 05:07:45;;;;;;;20.33;12.27;;;;;;;8.10;nan;102151.34;5053080;28;20028;-55
2021/10/19 05:10:10;;;;;;;19.63;11.68;;;;;;;8.08;nan;102141.91;5057994;28;20039;-55
2021/10/19 05:12:36;;;;;;;19.75;11.88;;;;;;;8.08;nan;102140.06;5055958;28;20486;-56
2021/10/19 05:15:02;;;;;;;23.80;12.07;;;;;;;8.09;nan;102149.72;5058984;28;20101;-53
2021/10/19 05:17:28;;;;;;;21.70;12.25;;;;;;;8.13;nan;102142.13;5059222;28;20036;-54
2021/10/19 05:19:54;;;;;;;20.02;12.38;;;;;;;8.16;nan;102139.88;5059290;28;20020;-56
2021/10/19 05:22:21;;;;;;;21.42;12.85;;;;;;;8.15;nan;102137.41;5058528;28;20119;-56
2021/10/19 05:24:46;;;;;;;27.95;13.15;;;;;;;8.16;nan;102139.88;5058506;28;20109;-56
2021/10/19 05:27:12;;;;;;;23.92;13.20;;;;;;;8.10;nan;102135.34;5057389;28;20079;-57
2021/10/19 05:29:37;;;;;;;20.05;12.75;;;;;;;8.09;nan;102141.69;5062149;28;20036;-56
2021/10/19 05:32:05;;;;;;;24.13;12.95;;;;;;;8.07;nan;102145.56;5043084;28;20035;-56
2021/10/19 05:34:31;;;;;;;20.27;12.20;;;;;;;8.10;nan;102146.00;5054704;28;20040;-55
2021/10/19 05:36:56;;;;;;;21.95;11.68;;;;;;;8.08;nan;102148.06;5060820;28;20070;-54
2021/10/19 05:39:22;;;;;;;21.02;12.23;;;;;;;8.08;nan;102142.72;5057888;28;20136;-54
2021/10/19 05:41:47;;;;;;;18.73;11.48;;;;;;;8.13;nan;102155.47;5061064;28;20065;-55
2021/10/19 05:44:13;;;;;;;20.48;11.55;;;;;;;8.11;nan;102141.50;5059908;28;20035;-55
2021/10/19 05:46:38;;;;;;;22.80;13.32;;;;;;;8.16;nan;102134.53;5062403;28;20063;-53
2021/10/19 05:49:04;;;;;;;22.88;12.40;;;;;;;8.15;nan;102138.22;5059974;28;20486;-55
2021/10/19 05:51:29;;;;;;;19.02;12.43;;;;;;;8.21;nan;102135.78;5041405;28;20056;-56
2021/10/19 05:53:55;;;;;;;15.48;10.88;;;;;;;8.18;nan;102137.81;5060663;28;20024;-55
2021/10/19 05:56:20;;;;;;;22.08;11.35;;;;;;;8.19;nan;102126.13;5060269;28;20033;-55
2021/10/19 05:58:46;;;;;;;20.60;11.85;;;;;;;8.18;nan;102134.34;5060086;28;20039;-55
2021/10/19 06:01:11;;;;;;;20.17;12.48;;;;;;;8.22;nan;102129.41;5059163;28;20023;-54
2021/10/19 06:03:37;;;;;;;21.25;12.07;;;;;;;8.24;nan;102124.69;5061613;28;20032;-57
2021/10/19 06:06:07;;;;;;;23.80;13.15;;;;;;;8.25;nan;102126.34;5058091;28;20037;-56
2021/10/19 06:08:33;;;;;;;19.80;11.95;;;;;;;8.26;nan;102126.19;5061921;28;20260;-53
2021/10/19 06:10:59;;;;;;;20.65;12.35;;;;;;;8.26;nan;102128.84;5061892;28;20043;-56
2021/10/19 06:13:25;;;;;;;19.88;12.27;;;;;;;8.30;nan;102121.25;5057864;28;20117;-54
2021/10/19 06:15:50;;;;;;;16.58;10.57;;;;;;;8.32;nan;102125.38;5060934;28;20493;-53
2021/10/19 06:18:16;;;;;;;23.48;12.25;;;;;;;8.28;nan;102126.81;5061316;28;20028;-57
2021/10/19 06:20:43;;;;;;;19.20;11.25;;;;;;;8.33;nan;102134.19;5056867;28;20047;-55
2021/10/19 06:23:09;;;;;;;21.90;12.07;;;;;;;8.39;nan;102128.09;5057814;28;20501;-56
2021/10/19 06:25:34;;;;;;;19.20;11.00;;;;;;;8.38;nan;102126.44;5062942;28;20073;-54
2021/10/19 06:27:59;;;;;;;18.98;11.20;;;;;;;8.43;nan;102123.97;5039544;28;20119;-55
2021/10/19 06:30:25;;;;;;;18.65;11.57;;;;;;;8.44;nan;102120.31;5059609;28;20042;-56
2021/10/19 06:32:50;;;;;;;21.20;11.82;;;;;;;8.43;nan;102123.97;5059509;28;20066;-56
2021/10/19 06:35:16;;;;;;;22.15;12.20;;;;;;;8.47;nan;102125.25;5061000;28;20051;-55
2021/10/19 06:37:41;;;;;;;22.23;11.95;;;;;;;8.43;nan;102130.16;5059497;28;20424;-54
2021/10/19 06:40:07;;;;;;;18.35;11.27;;;;;;;8.45;nan;102143.34;5059668;28;21533;-55
2021/10/19 06:42:34;;;;;;;20.88;11.90;;;;;;;8.50;nan;102154.22;5062768;28;20024;-56
2021/10/19 06:45:00;;;;;;;21.50;12.82;;;;;;;8.47;nan;102159.97;5062305;28;20660;-55
2021/10/19 06:47:29;;;;;;;20.55;12.50;;;;;;;8.49;nan;102155.25;5058971;28;20033;-53
2021/10/19 06:49:55;;;;;;;21.83;13.07;;;;;;;8.50;nan;102146.22;5059260;28;20165;-56
2021/10/19 06:52:21;;;;;;;20.35;12.20;;;;;;;8.58;nan;102146.03;5058623;28;20025;-55
2021/10/19 06:54:46;;;;;;;19.08;12.23;;;;;;;8.67;nan;102139.50;5063120;28;20035;-56
2021/10/19 06:57:12;;;;;;;25.77;12.70;;;;;;;8.67;nan;102134.16;5060281;28;20025;-56
2021/10/19 06:59:38;;;;;;;19.60;12.20;;;;;;;8.72;nan;102134.34;5062762;28;20302;-56
2021/10/19 07:02:04;;;;;;;18.95;11.60;;;;;;;8.74;nan;102132.31;5043815;28;20115;-57
2021/10/19 07:04:29;;;;;;;22.88;12.70;;;;;;;8.81;nan;102120.81;5040725;28;20029;-55
2021/10/19 07:06:55;;;;;;;20.85;12.02;;;;;;;8.88;nan;102116.31;5041649;28;20028;-55
2021/10/19 07:09:21;;;;;;;21.88;12.13;;;;;;;8.90;nan;102116.91;5043004;28;20068;-54
2021/10/19 07:11:46;;;;;;;20.98;12.40;;;;;;;8.95;nan;102119.81;5039918;28;20032;-56
2021/10/19 07:14:12;;;;;;;19.33;12.32;;;;;;;8.98;nan;102127.44;5039267;28;20390;-57
2021/10/19 07:16:37;;;;;;;21.00;11.25;;;;;;;8.91;nan;102129.25;5038402;28;20033;-56
2021/10/19 07:19:08;;;;;;;20.48;11.75;;;;;;;8.81;nan;102120.81;5037544;28;20106;-57
2021/10/19 07:21:33;;;;;;;20.10;13.15;;;;;;;9.01;nan;102116.34;5039460;28;20029;-56
2021/10/19 07:23:59;;;;;;;19.10;10.82;;;;;;;8.85;nan;102112.19;5034872;28;20029;-56
2021/10/19 07:26:24;;;;;;;17.23;10.75;;;;;;;8.95;nan;102106.44;5037193;28;20024;-55
2021/10/19 07:28:50;;;;;;;21.73;12.18;;;;;;;9.01;nan;102110.97;5036757;28;20079;-56
2021/10/19 07:31:16;;;;;;;18.58;11.20;;;;;;;9.23;nan;102100.91;5034688;28;21002;-57
2021/10/19 07:33:41;;;;;;;17.33;11.15;;;;;;;9.38;nan;102102.34;5033957;28;20150;-56
2021/10/19 07:36:07;;;;;;;19.23;12.82;;;;;;;9.53;nan;102099.47;5036016;28;20502;-54
2021/10/19 07:38:32;;;;;;;16.58;11.93;;;;;;;9.62;nan;102086.66;5036157;28;20029;-56
2021/10/19 07:40:58;;;;;;;18.08;11.73;;;;;;;9.67;nan;102086.84;5034051;28;20067;-55
2021/10/19 07:43:23;;;;;;;21.90;12.20;;;;;;;9.62;nan;102078.63;5038065;28;20307;-55
2021/10/19 07:45:49;;;;;;;20.75;12.10;;;;;;;9.46;nan;102082.56;5036052;28;20029;-56
2021/10/19 07:48:14;;;;;;;20.08;12.48;;;;;;;9.64;nan;102079.25;5033456;28;20514;-55
2021/10/19 07:50:44;;;;;;;19.13;11.57;;;;;;;9.64;nan;102089.94;5038556;28;20156;-56
2021/10/19 07:53:10;;;;;;;19.30;11.85;;;;;;;9.62;nan;102078.63;5032195;28;20025;-56
2021/10/19 07:55:35;;;;;;;19.67;12.48;;;;;;;9.62;nan;102092.84;5037125;28;20383;-54
2021/10/19 07:58:01;;;;;;;18.23;12.15;;;;;;;9.75;nan;102089.31;5041075;28;20110;-53
2021/10/19 08:00:28;;;;;;;21.35;12.52;;;;;;;9.74;nan;102076.16;5043279;28;20036;-56
2021/10/19 08:02:55;;;;;;;20.10;11.18;;;;;;;9.77;nan;102065.84;5054462;28;20020;-54
2021/10/19 08:05:21;;;;;;;20.20;10.90;;;;;;;9.63;nan;102056.19;5058036;28;20036;-53
2021/10/19 08:07:50;;;;;;;20.95;10.57;;;;;;;9.75;nan;102054.53;5058937;28;20083;-55
2021/10/19 08:10:22;;;;;;;24.65;12.75;;;;;;;9.83;nan;102061.50;5055505;28;20028;-57
2021/10/19 08:12:49;;;;;;;21.17;13.73;;;;;;;9.94;nan;102059.00;5050796;28;20067;-56
2021/10/19 08:15:16;;;;;;;24.85;12.98;;;;;;;9.91;nan;102053.25;5056670;28;20024;-56
2021/10/19 08:17:42;;;;;;;21.30;13.63;;;;;;;10.01;nan;102061.63;5053673;28;20035;-56
2021/10/19 08:20:09;;;;;;;16.08;11.10;;;;;;;9.93;nan;102052.00;5060304;28;20024;-53
2021/10/19 08:22:34;;;;;;;20.80;13.18;;;;;;;10.22;nan;102045.28;5057183;28;20091;-54
2021/10/19 08:25:05;;;;;;;18.02;11.23;;;;;;;10.17;nan;102052.28;5054286;28;20482;-56
2021/10/19 08:27:32;;;;;;;19.45;9.90;;;;;;;10.20;nan;102041.97;5056700;28;20042;-54
2021/10/19 08:29:57;;;;;;;19.67;10.57;;;;;;;10.52;nan;102048.22;5060237;28;20028;-55
2021/10/19 08:32:23;;;;;;;20.73;12.93;;;;;;;10.73;nan;102039.00;5055049;28;20054;-53
2021/10/19 08:34:48;;;;;;;19.88;12.60;;;;;;;10.79;nan;102031.97;5062815;28;20085;-54
2021/10/19 08:37:14;;;;;;;15.50;9.70;;;;;;;10.79;nan;102043.50;5059436;28;20039;-56
2021/10/19 08:39:40;;;;;;;20.90;12.07;;;;;;;10.80;nan;102053.19;5059828;28;20613;-53
2021/10/19 08:42:06;;;;;;;18.13;12.18;;;;;;;10.94;nan;102035.13;5058323;28;20032;-55
2021/10/19 08:44:32;;;;;;;20.83;12.13;;;;;;;10.94;nan;102023.56;5062191;28;20025;-53
2021/10/19 08:46:57;;;;;;;18.83;11.07;;;;;;;11.00;nan;102030.75;5061215;28;20024;-54
2021/10/19 08:49:23;;;;;;;17.95;11.50;;;;;;;11.17;nan;102027.31;5060997;28;20028;-55
2021/10/19 08:51:48;;;;;;;18.45;9.57;;;;;;;11.17;nan;102038.03;5062771;28;20036;-55
2021/10/19 08:54:14;;;;;;;17.33;11.05;;;;;;;11.05;nan;102039.78;5063349;28;20116;-55
2021/10/19 08:56:40;;;;;;;18.35;11.52;;;;;;;11.12;nan;102035.16;5062717;28;20514;-54
2021/10/19 08:59:07;;;;;;;20.33;12.40;;;;;;;11.35;nan;102064.06;5063819;28;20055;-55
2021/10/19 09:01:35;;;;;;;19.35;12.00;;;;;;;11.59;nan;102062.38;5057364;28;20035;-55
2021/10/19 09:04:09;;;;;;;20.98;12.00;;;;;;;11.52;nan;102055.44;5056224;28;20533;-56
2021/10/19 09:06:37;;;;;;;20.43;12.07;;;;;;;11.85;nan;102060.47;5056435;28;20082;-54
2021/10/19 09:09:12;;;;;;;18.55;12.15;;;;;;;12.06;nan;102062.72;5061754;28;20906;-54
2021/10/19 09:11:44;;;;;;;26.60;13.13;;;;;;;12.36;nan;102060.84;5060964;28;20433;-54
2021/10/19 09:14:10;;;;;;;19.33;12.15;;;;;;;12.33;nan;102068.56;5055123;28;20386;-54
2021/10/19 09:16:40;;;;;;;21.00;11.43;;;;;;;12.38;nan;102077.56;5062440;28;20464;-56
2021/10/19 09:19:06;;;;;;;18.40;10.30;;;;;;;12.60;nan;102075.22;5064013;28;20580;-57
2021/10/19 09:21:32;;;;;;;18.60;10.63;;;;;;;12.56;nan;102067.81;5063779;28;20056;-56
2021/10/19 09:24:30;;;;;;;21.88;11.40;;;;;;;12.60;nan;102067.16;5064942;28;20150;-54
2021/10/19 09:27:04;;;;;;;17.13;10.32;;;;;;;12.58;nan;102060.38;5051665;28;20128;-54
2021/10/19 09:29:34;;;;;;;22.03;11.77;;;;;;;12.29;nan;102060.13;5060521;28;20554;-55
2021/10/19 09:32:03;;;;;;;20.50;11.18;;;;;;;12.36;nan;102057.34;5060488;28;20479;-54
2021/10/19 09:34:30;;;;;;;19.15;10.45;;;;;;;12.29;nan;102054.75;5063000;28;20036;-56
2021/10/19 09:36:57;;;;;;;16.45;10.40;;;;;;;11.97;nan;102062.19;5060691;28;20045;-57
2021/10/19 09:39:37;;;;;;;17.27;10.75;;;;;;;12.06;nan;102057.34;5055707;28;20109;-56
2021/10/19 09:42:06;;;;;;;18.20;11.27;;;;;;;12.13;nan;102041.94;5061151;28;20321;-57
2021/10/19 09:44:32;;;;;;;18.15;11.48;;;;;;;12.02;nan;102050.75;5038552;28;20077;-54
2021/10/19 09:46:59;;;;;;;20.48;11.70;;;;;;;12.20;nan;102039.16;5055522;28;20416;-55
2021/10/19 09:49:27;;;;;;;17.17;11.25;;;;;;;12.19;nan;102030.28;5057718;28;20114;-55
2021/10/19 09:51:52;;;;;;;17.17;10.13;;;;;;;11.97;nan;102016.53;5059934;28;20023;-55
2021/10/19 09:54:26;;;;;;;16.98;11.45;;;;;;;12.19;nan;102030.28;5057942;28;20029;-52
2021/10/19 09:56:52;;;;;;;19.40;11.63;;;;;;;12.03;nan;102021.00;5064657;28;20040;-57
2021/10/19 09:59:18;;;;;;;19.70;11.63;;;;;;;12.13;nan;102031.19;5062204;28;20054;-54
2021/10/19 10:01:44;;;;;;;18.77;12.02;;;;;;;11.96;nan;102038.25;5058725;28;20028;-53
2021/10/19 10:04:10;;;;;;;19.25;11.95;;;;;;;12.10;nan;102045.91;5058053;28;20116;-56
2021/10/19 10:06:36;;;;;;;17.52;11.05;;;;;;;12.35;nan;102043.09;5052490;28;20130;-53
2021/10/19 10:09:02;;;;;;;17.40;11.25;;;;;;;12.38;nan;102033.75;5059919;28;20074;-55
2021/10/19 10:11:28;;;;;;;16.90;10.82;;;;;;;12.61;nan;102028.44;5058170;28;20039;-55
2021/10/19 10:13:58;;;;;;;18.38;11.90;;;;;;;12.81;nan;102032.69;5058839;28;20033;-54
2021/10/19 10:16:24;;;;;;;16.58;12.02;;;;;;;12.88;nan;102039.59;5057884;28;20028;-55
2021/10/19 10:18:50;;;;;;;16.10;11.75;;;;;;;12.98;nan;102028.28;5059915;28;20127;-56
2021/10/19 10:21:18;;;;;;;18.40;10.63;;;;;;;13.10;nan;102025.56;5063231;28;20091;-53
2021/10/19 10:23:44;;;;;;;18.85;10.52;;;;;;;13.13;nan;102019.75;5061965;28;20039;-56
2021/10/19 10:26:30;;;;;;;19.67;11.00;;;;;;;13.06;nan;101997.50;5062450;28;20033;-53
2021/10/19 10:29:17;;;;;;;17.05;10.32;;;;;;;12.93;nan;101999.38;5059490;28;20028;-56
2021/10/19 10:31:53;;;;;;;15.07;10.63;;;;;;;13.02;nan;101995.28;5064298;28;20055;-55
2021/10/19 10:34:36;;;;;;;19.45;11.80;;;;;;;13.00;nan;101989.31;5057149;28;20132;-55
2021/10/19 10:37:12;;;;;;;16.25;10.60;;;;;;;13.07;nan;101989.19;5063643;28;20066;-55
2021/10/19 10:39:44;;;;;;;17.23;11.40;;;;;;;13.02;nan;101987.22;5060373;28;20028;-55
2021/10/19 10:42:11;;;;;;;20.98;12.07;;;;;;;13.16;nan;101993.19;5057674;28;20025;-55
2021/10/19 10:44:40;;;;;;;17.80;10.50;;;;;;;13.32;nan;101989.00;5063076;28;20023;-54
2021/10/19 10:47:08;;;;;;;15.57;9.88;;;;;;;13.24;nan;101986.66;5062238;28;20024;-57
2021/10/19 10:49:34;;;;;;;15.43;9.85;;;;;;;13.05;nan;101979.72;5060722;28;20029;-57
2021/10/19 10:52:02;;;;;;;16.33;10.90;;;;;;;13.05;nan;101982.41;5055190;28;20024;-53
2021/10/19 10:54:27;;;;;;;11.93;8.30;;;;;;;13.01;nan;101984.75;5054351;28;20051;-54
2021/10/19 10:56:54;;;;;;;17.02;9.52;;;;;;;13.13;nan;101974.00;5061326;28;20024;-54
2021/10/19 10:59:33;;;;;;;15.55;10.13;;;;;;;13.34;nan;101961.84;5059905;28;20115;-56
2021/10/19 11:02:09;;;;;;;15.40;10.27;;;;;;;13.49;nan;101967.56;5054928;28;20033;-57
2021/10/19 11:04:48;;;;;;;16.25;9.93;;;;;;;13.48;nan;101974.81;5060708;28;20036;-56
2021/10/19 11:07:28;;;;;;;16.25;9.73;;;;;;;13.70;nan;101956.13;5056757;28;20441;-56
2021/10/19 11:09:54;;;;;;;17.50;9.88;;;;;;;14.28;nan;101965.00;5057136;28;20028;-53
2021/10/19 11:12:20;;;;;;;19.73;11.32;;;;;;;14.72;nan;101969.56;5056366;28;20044;-56
2021/10/19 11:14:47;;;;;;;13.70;9.40;;;;;;;14.84;nan;101969.47;5052416;28;20021;-57
2021/10/19 11:17:12;;;;;;;14.40;8.95;;;;;;;14.75;nan;101969.06;5059374;28;20031;-54
2021/10/19 11:19:38;;;;;;;15.88;9.85;;;;;;;15.27;nan;101968.75;5059974;28;20415;-53
2021/10/19 11:22:07;;;;;;;13.15;8.80;;;;;;;15.15;nan;101973.44;5060769;28;20501;-56
2021/10/19 11:24:36;;;;;;;14.95;9.85;;;;;;;15.48;nan;101963.63;5053168;28;20319;-58
2021/10/19 11:27:03;;;;;;;14.73;9.15;;;;;;;15.54;nan;101965.31;5054106;28;20133;-56
2021/10/19 11:29:33;;;;;;;13.82;9.57;;;;;;;15.79;nan;101962.91;5056665;28;20107;-56
2021/10/19 11:32:00;;;;;;;15.20;9.38;;;;;;;15.78;nan;101960.47;5059363;28;20033;-56